createdAt,value
2022-10-04T00:04:46.560Z,100.00
2022-10-04T00:09:54.005Z,100.00
2022-10-04T00:15:01.493Z,100.00
2022-10-04T00:20:25.864Z,100.00
2022-10-04T00:25:37.023Z,100.00
2022-10-04T00:30:41.545Z,100.00
2022-10-04T00:35:50.764Z,100.00
2022-10-04T00:40:59.314Z,100.00
2022-10-04T00:46:08.335Z,100.00
2022-10-04T00:51:20.241Z,100.00
2022-10-04T00:56:30.384Z,100.00
2022-10-04T01:01:38.018Z,100.00
2022-10-04T01:06:42.656Z,100.00
2022-10-04T01:11:56.726Z,100.00
2022-10-04T01:17:00.916Z,100.00
2022-10-04T01:22:12.883Z,100.00
2022-10-04T01:27:41.450Z,100.00
2022-10-04T01:32:45.524Z,100.00
2022-10-04T01:37:48.496Z,100.00
2022-10-04T01:42:57.771Z,100.00
2022-10-04T01:48:03.051Z,100.00
2022-10-04T01:53:15.316Z,100.00
2022-10-04T01:58:24.121Z,100.00
2022-10-04T02:03:35.036Z,100.00
2022-10-04T02:08:41.229Z,100.00
2022-10-04T02:13:46.699Z,100.00
2022-10-04T02:18:52.120Z,100.00
2022-10-04T02:23:55.192Z,100.00
2022-10-04T02:28:59.507Z,100.00
2022-10-04T02:34:02.791Z,100.00
2022-10-04T02:39:10.869Z,100.00
2022-10-04T02:44:19.287Z,100.00
2022-10-04T02:49:26.506Z,100.00
2022-10-04T02:54:33.650Z,100.00
2022-10-04T02:59:40.703Z,100.00
2022-10-04T03:04:44.219Z,100.00
2022-10-04T03:09:47.595Z,100.00
2022-10-04T03:14:54.298Z,100.00
2022-10-04T03:19:58.162Z,100.00
2022-10-04T03:25:01.590Z,100.00
2022-10-04T03:30:07.066Z,100.00
2022-10-04T03:35:21.936Z,100.00
2022-10-04T03:40:28.209Z,100.00
2022-10-04T03:45:34.376Z,100.00
2022-10-04T03:50:45.045Z,100.00
2022-10-04T03:55:47.931Z,100.00
2022-10-04T04:01:07.188Z,100.00
2022-10-04T04:06:17.387Z,100.00
2022-10-04T04:11:24.225Z,100.00
2022-10-04T04:16:29.130Z,100.00
2022-10-04T04:21:32.947Z,100.00
2022-10-04T04:26:40.718Z,100.00
2022-10-04T04:31:52.560Z,100.00
2022-10-04T04:37:00.013Z,100.00
2022-10-04T04:42:06.755Z,100.00
2022-10-04T04:47:18.261Z,100.00
2022-10-04T04:52:23.909Z,100.00
2022-10-04T04:57:27.055Z,100.00
2022-10-04T05:02:34.964Z,100.00
2022-10-04T05:07:38.026Z,100.00
2022-10-04T05:12:41.285Z,100.00
2022-10-04T05:17:46.220Z,100.00
2022-10-04T05:22:51.418Z,100.00
2022-10-04T05:27:56.228Z,100.00
2022-10-04T05:33:06.504Z,100.00
2022-10-04T05:38:18.234Z,100.00
2022-10-04T05:43:31.283Z,100.00
2022-10-04T05:48:36.375Z,100.00
2022-10-04T05:53:39.680Z,100.00
2022-10-04T05:58:58.311Z,100.00
2022-10-04T06:04:42.548Z,100.00
2022-10-04T06:09:54.707Z,100.00
2022-10-04T06:15:31.595Z,100.00
2022-10-04T06:21:11.639Z,100.00
2022-10-04T06:26:21.804Z,100.00
2022-10-04T06:31:47.424Z,100.00
2022-10-04T06:37:19.931Z,100.00
2022-10-04T06:42:42.164Z,100.00
2022-10-04T06:48:03.680Z,91.54
2022-10-04T06:53:20.600Z,71.10
2022-10-04T06:58:40.217Z,63.26
2022-10-04T07:03:57.129Z,65.61
2022-10-04T07:09:05.452Z,67.53
2022-10-04T07:14:15.671Z,67.60
2022-10-04T07:19:31.976Z,71.98
2022-10-04T07:24:47.784Z,73.48
2022-10-04T07:29:56.182Z,81.47
2022-10-04T07:35:03.551Z,83.30
2022-10-04T07:40:10.657Z,87.37
2022-10-04T07:45:20.922Z,90.83
2022-10-04T07:50:25.906Z,93.63
2022-10-04T07:55:38.779Z,93.58
2022-10-04T08:00:50.722Z,90.55
2022-10-04T08:06:00.117Z,90.38
2022-10-04T08:11:20.664Z,91.95
2022-10-04T08:16:36.052Z,91.50
2022-10-04T08:21:47.997Z,91.92
2022-10-04T08:27:02.084Z,89.34
2022-10-04T08:32:23.069Z,88.87
2022-10-04T08:37:42.459Z,88.06
2022-10-04T08:43:19.569Z,87.36
2022-10-04T08:49:03.269Z,84.93
2022-10-04T08:54:43.590Z,82.76
2022-10-04T09:00:09.701Z,86.26
2022-10-04T09:05:51.985Z,85.58
2022-10-04T09:11:22.498Z,82.94
2022-10-04T09:16:36.056Z,79.12
2022-10-04T09:22:04.863Z,81.13
2022-10-04T09:27:36.856Z,80.93
2022-10-04T09:33:06.284Z,78.74
2022-10-04T09:38:36.385Z,76.00
2022-10-04T09:44:00.963Z,77.69
2022-10-04T09:49:21.050Z,79.54
2022-10-04T09:54:56.825Z,78.40
2022-10-04T10:00:10.107Z,79.35
2022-10-04T10:05:29.252Z,79.03
2022-10-04T10:11:00.522Z,78.45
2022-10-04T10:16:13.614Z,81.14
2022-10-04T10:21:42.312Z,76.20
2022-10-04T10:26:54.096Z,78.65
2022-10-04T10:32:20.576Z,79.98
2022-10-04T10:37:35.037Z,79.88
2022-10-04T10:43:02.926Z,80.21
2022-10-04T10:48:13.462Z,79.18
2022-10-04T10:53:49.062Z,75.99
2022-10-04T10:59:21.652Z,74.55
2022-10-04T11:04:44.845Z,75.77
2022-10-04T11:10:34.186Z,75.80
2022-10-04T11:15:49.546Z,75.65
2022-10-04T11:21:25.752Z,76.58
2022-10-04T11:27:01.894Z,74.75
2022-10-04T11:32:41.377Z,74.04
2022-10-04T11:37:58.362Z,72.25
2022-10-04T11:43:19.435Z,70.97
2022-10-04T11:48:32.968Z,69.95
2022-10-04T11:54:10.540Z,68.88
2022-10-04T11:59:31.429Z,66.74
2022-10-04T12:04:57.297Z,68.92
2022-10-04T12:10:12.529Z,68.41
2022-10-04T12:15:40.997Z,68.79
2022-10-04T12:21:21.369Z,68.71
2022-10-04T12:26:39.615Z,66.26
2022-10-04T12:31:47.568Z,64.54
2022-10-04T12:37:10.736Z,66.36
2022-10-04T12:42:30.424Z,66.35
2022-10-04T12:47:52.904Z,66.65
2022-10-04T12:53:07.535Z,66.23
2022-10-04T12:58:22.732Z,66.02
2022-10-04T13:03:40.217Z,66.86
2022-10-04T13:08:57.523Z,67.05
2022-10-04T13:14:29.123Z,67.04
2022-10-04T13:19:41.699Z,66.07
2022-10-04T13:24:59.087Z,66.94
2022-10-04T13:30:07.540Z,68.34
2022-10-04T13:35:20.705Z,67.78
2022-10-04T13:40:36.690Z,68.21
2022-10-04T13:45:48.601Z,66.52
2022-10-04T13:51:09.753Z,66.74
2022-10-04T13:56:37.911Z,65.82
2022-10-04T14:01:58.967Z,66.22
2022-10-04T14:07:37.578Z,66.42
2022-10-04T14:13:03.103Z,65.16
2022-10-04T14:18:38.273Z,65.03
2022-10-04T14:24:15.874Z,65.18
2022-10-04T14:29:56.695Z,64.83
2022-10-04T14:35:05.035Z,65.66
2022-10-04T14:40:43.054Z,66.96
2022-10-04T14:46:02.700Z,67.43
2022-10-04T14:51:23.740Z,67.97
2022-10-04T14:56:48.012Z,68.09
2022-10-04T15:02:25.564Z,68.58
2022-10-04T15:07:36.772Z,69.66
2022-10-04T15:13:11.067Z,69.62
2022-10-04T15:18:30.306Z,70.09
2022-10-04T15:23:39.358Z,70.09
2022-10-04T15:29:02.422Z,68.88
2022-10-04T15:34:14.240Z,68.63
2022-10-04T15:39:54.680Z,68.84
2022-10-04T15:45:30.460Z,69.94
2022-10-04T15:50:38.329Z,68.98
2022-10-04T15:56:02.425Z,70.25
2022-10-04T16:01:34.796Z,70.82
2022-10-04T16:06:51.023Z,71.29
2022-10-04T16:12:20.381Z,71.36
2022-10-04T16:17:50.815Z,72.35
2022-10-04T16:23:28.674Z,74.25
2022-10-04T16:29:04.495Z,75.36
2022-10-04T16:34:26.429Z,76.28
2022-10-04T16:39:56.279Z,78.02
2022-10-04T16:45:18.782Z,79.58
2022-10-04T16:50:52.958Z,79.88
2022-10-04T16:56:10.256Z,81.49
2022-10-04T17:01:43.526Z,81.32
2022-10-04T17:06:54.734Z,82.56
2022-10-04T17:12:19.154Z,81.95
2022-10-04T17:17:52.054Z,80.69
2022-10-04T17:23:12.775Z,80.22
2022-10-04T17:28:29.386Z,82.22
2022-10-04T17:33:43.631Z,82.24
2022-10-04T17:38:59.683Z,82.70
2022-10-04T17:44:25.523Z,83.16
2022-10-04T17:49:54.019Z,83.41
2022-10-04T17:55:19.546Z,82.97
2022-10-04T18:00:24.780Z,83.88
2022-10-04T18:05:32.316Z,83.76
2022-10-04T18:10:41.056Z,84.94
2022-10-04T18:15:54.461Z,84.61
2022-10-04T18:21:21.727Z,85.15
2022-10-04T18:26:29.866Z,85.20
2022-10-04T18:31:42.094Z,86.42
2022-10-04T18:36:54.343Z,86.47
2022-10-04T18:42:28.449Z,86.19
2022-10-04T18:47:40.155Z,86.93
2022-10-04T18:52:54.351Z,86.03
2022-10-04T18:58:28.938Z,86.16
2022-10-04T19:03:40.833Z,85.33
2022-10-04T19:08:53.962Z,85.61
2022-10-04T19:14:08.468Z,86.15
2022-10-04T19:19:35.526Z,87.45
2022-10-04T19:24:58.947Z,87.90
2022-10-04T19:30:22.201Z,89.11
2022-10-04T19:35:38.611Z,88.94
2022-10-04T19:41:09.881Z,88.79
2022-10-04T19:46:45.202Z,89.39
2022-10-04T19:52:03.265Z,89.94
2022-10-04T19:57:15.044Z,90.74
2022-10-04T20:02:21.159Z,90.93
2022-10-04T20:07:28.087Z,91.99
2022-10-04T20:12:36.020Z,92.32
2022-10-04T20:17:40.795Z,92.52
2022-10-04T20:23:03.519Z,92.77
2022-10-04T20:28:06.941Z,92.77
2022-10-04T20:33:12.115Z,92.91
2022-10-04T20:38:32.062Z,92.66
2022-10-04T20:43:54.797Z,91.57
2022-10-04T20:48:59.420Z,91.93
2022-10-04T20:54:03.825Z,91.90
2022-10-04T20:59:06.880Z,91.96
2022-10-04T21:04:29.664Z,91.95
2022-10-04T21:09:33.986Z,91.50
2022-10-04T21:14:38.062Z,89.89
2022-10-04T21:19:46.508Z,88.98
2022-10-04T21:24:55.814Z,89.10
2022-10-04T21:29:59.663Z,88.85
2022-10-04T21:35:06.346Z,89.34
2022-10-04T21:40:10.059Z,90.14
2022-10-04T21:45:13.028Z,90.37
2022-10-04T21:50:17.181Z,91.18
2022-10-04T21:55:30.736Z,91.11
2022-10-04T22:00:34.111Z,89.67
2022-10-04T22:05:38.290Z,90.49
2022-10-04T22:10:41.227Z,91.88
2022-10-04T22:15:45.224Z,91.47
2022-10-04T22:20:49.412Z,91.08
2022-10-04T22:25:53.713Z,91.33
2022-10-04T22:30:57.492Z,91.13
2022-10-04T22:36:14.430Z,91.79
2022-10-04T22:41:19.606Z,91.77
2022-10-04T22:46:22.655Z,91.10
2022-10-04T22:51:29.683Z,90.69
2022-10-04T22:56:32.443Z,90.87
2022-10-04T23:01:35.253Z,90.14
2022-10-04T23:06:39.362Z,89.78
2022-10-04T23:11:42.095Z,90.05
2022-10-04T23:16:45.469Z,90.04
2022-10-04T23:21:50.982Z,89.99
2022-10-04T23:26:56.582Z,90.90
2022-10-04T23:31:59.427Z,91.04
2022-10-04T23:37:04.233Z,90.91
2022-10-04T23:42:16.895Z,90.36
2022-10-04T23:47:20.612Z,89.79
2022-10-04T23:52:27.344Z,88.65
2022-10-04T23:57:31.353Z,88.60
